Terminal Aerodrome Forecast
Issued by NWS

Current Version | Previous Version | Text Only | Print | Product List | Glossary Off
Versions: 1 2 3 4 5 6 7 8 9 10 11 12 13 14 15 16 17 18 19 20 21 22 23 24

000
FTUS41 KILN 280000 AAA
TAFLUK
TAF AMD
KLUK 280058Z 2801/2824 22010G20KT P6SM SCT050
     FM280200 22010KT P6SM SCT050
     FM280500 VRB03KT 5SM BR SCT025
     FM280900 00000KT 1/2SM FG SCT002
     FM281200 00000KT 3SM BR SCT010
     FM281300 09005KT P6SM SCT035
     FM282300 12004KT P6SM VCSH SCT040=

USA.gov is the U.S. government's official web portal to all federal, state and local government web resources and services.